Time;durP1;ratioP1;P1;durP2;ratioP2;P2;SDS_P1;SDS_P2;PMS_P1;PMS_P2;Temp;Humidity;BMP_temperature;BMP_pressure;BME280_temperature;BME280_humidity;BME280_pressure;Samples;Min_cycle;Max_cycle;Signal;HPM_P1;HPM_P2
2023/12/04 00:02:20;;;;;;;26.42;11.80;;;;;;;;;;4985690;28;20767;-75
2023/12/04 00:04:46;;;;;;;27.73;12.40;;;;;;;;;;4981663;28;20339;-73
2023/12/04 00:07:11;;;;;;;29.65;11.35;;;;;;;;;;4988591;28;20504;-73
2023/12/04 00:09:36;;;;;;;30.65;12.23;;;;;;;;;;4960962;28;20045;-75
2023/12/04 00:12:02;;;;;;;27.75;13.18;;;;;;;;;;4989946;28;20029;-74
2023/12/04 00:14:27;;;;;;;28.17;11.23;;;;;;;;;;5004684;28;20393;-73
2023/12/04 00:16:53;;;;;;;26.75;11.60;;;;;;;;;;4987337;28;20073;-74
2023/12/04 00:19:18;;;;;;;29.58;11.25;;;;;;;;;;5000070;28;20037;-75
2023/12/04 00:21:44;;;;;;;27.20;12.20;;;;;;;;;;4999370;28;20057;-75
2023/12/04 00:24:09;;;;;;;20.65;10.35;;;;;;;;;;4987428;28;20095;-74
2023/12/04 00:26:34;;;;;;;26.58;10.65;;;;;;;;;;5005834;28;20092;-74
2023/12/04 00:29:00;;;;;;;25.67;11.25;;;;;;;;;;4999860;28;20066;-74
2023/12/04 00:31:25;;;;;;;21.98;10.02;;;;;;;;;;4983860;28;20087;-74
2023/12/04 00:33:51;;;;;;;25.17;10.13;;;;;;;;;;4988414;28;20042;-75
2023/12/04 00:36:16;;;;;;;31.30;10.38;;;;;;;;;;4982015;28;20049;-74
2023/12/04 00:38:42;;;;;;;26.40;11.32;;;;;;;;;;4970503;28;20033;-74
2023/12/04 00:41:07;;;;;;;27.77;10.00;;;;;;;;;;4988639;28;20037;-75
2023/12/04 00:43:32;;;;;;;24.20;9.10;;;;;;;;;;4998227;28;20041;-73
2023/12/04 00:45:58;;;;;;;16.90;6.82;;;;;;;;;;4985793;28;20072;-74
2023/12/04 00:48:23;;;;;;;24.98;9.85;;;;;;;;;;4989279;28;20692;-73
2023/12/04 00:50:50;;;;;;;13.02;5.70;;;;;;;;;;4995797;28;20496;-74
2023/12/04 00:53:16;;;;;;;23.83;10.18;;;;;;;;;;4988964;28;20033;-73
2023/12/04 00:55:41;;;;;;;23.88;10.60;;;;;;;;;;4978740;28;20044;-75
2023/12/04 00:58:06;;;;;;;28.13;11.27;;;;;;;;;;4976944;28;20039;-74
2023/12/04 01:00:32;;;;;;;26.63;10.73;;;;;;;;;;4975953;28;20045;-75
2023/12/04 01:02:57;;;;;;;24.73;10.45;;;;;;;;;;4977171;28;20089;-74
2023/12/04 01:05:23;;;;;;;28.80;11.23;;;;;;;;;;4997882;28;20033;-74
2023/12/04 01:07:48;;;;;;;23.25;10.60;;;;;;;;;;4991161;28;20591;-75
2023/12/04 01:10:13;;;;;;;24.13;9.82;;;;;;;;;;4998702;28;20038;-74
2023/12/04 01:12:39;;;;;;;30.48;11.57;;;;;;;;;;4989781;28;20040;-74
2023/12/04 01:15:04;;;;;;;30.48;12.70;;;;;;;;;;4998910;28;20136;-74
2023/12/04 01:17:30;;;;;;;32.13;12.30;;;;;;;;;;4995542;28;20045;-73
2023/12/04 01:19:57;;;;;;;32.70;12.55;;;;;;;;;;4994529;28;20679;-74
2023/12/04 01:22:22;;;;;;;31.15;12.90;;;;;;;;;;4976537;28;20538;-73
2023/12/04 01:24:47;;;;;;;28.42;11.05;;;;;;;;;;4975488;28;20149;-73
2023/12/04 01:27:13;;;;;;;25.30;11.18;;;;;;;;;;4974184;28;20037;-74
2023/12/04 01:29:38;;;;;;;27.67;10.60;;;;;;;;;;5003592;28;20057;-74
2023/12/04 01:32:04;;;;;;;27.17;11.82;;;;;;;;;;4996447;28;20052;-76
2023/12/04 01:34:30;;;;;;;27.48;11.77;;;;;;;;;;4971294;28;20528;-74
2023/12/04 01:36:55;;;;;;;25.45;11.48;;;;;;;;;;5001688;28;20045;-72
2023/12/04 01:39:21;;;;;;;25.40;10.82;;;;;;;;;;4998104;28;20045;-74
2023/12/04 01:41:46;;;;;;;26.15;11.52;;;;;;;;;;4980280;28;20042;-73
2023/12/04 01:44:11;;;;;;;28.50;11.05;;;;;;;;;;4993433;28;20041;-72
2023/12/04 01:46:37;;;;;;;23.98;10.63;;;;;;;;;;4998783;28;20061;-75
2023/12/04 01:49:03;;;;;;;25.33;11.40;;;;;;;;;;4993232;28;20041;-72
2023/12/04 01:51:28;;;;;;;27.55;11.18;;;;;;;;;;4997793;28;20049;-76
2023/12/04 01:53:55;;;;;;;26.73;11.68;;;;;;;;;;4980426;28;20264;-73
2023/12/04 01:56:21;;;;;;;33.00;12.45;;;;;;;;;;4969649;28;20038;-74
2023/12/04 01:58:47;;;;;;;27.63;11.20;;;;;;;;;;4993494;28;20045;-74
2023/12/04 02:01:12;;;;;;;27.77;11.40;;;;;;;;;;4996595;28;20393;-73
2023/12/04 02:03:37;;;;;;;26.95;11.32;;;;;;;;;;4984987;28;20136;-74
2023/12/04 02:06:05;;;;;;;26.77;10.57;;;;;;;;;;5003170;28;20041;-74
2023/12/04 02:08:31;;;;;;;27.60;10.77;;;;;;;;;;5000242;28;20048;-76
2023/12/04 02:10:56;;;;;;;24.65;10.15;;;;;;;;;;4985278;28;20637;-73
2023/12/04 02:13:22;;;;;;;20.45;9.45;;;;;;;;;;5004513;28;20103;-74
2023/12/04 02:15:51;;;;;;;24.63;10.18;;;;;;;;;;4998679;28;20038;-76
2023/12/04 02:18:18;;;;;;;18.45;8.77;;;;;;;;;;4991601;28;20392;-75
2023/12/04 02:20:43;;;;;;;22.80;9.77;;;;;;;;;;4975951;28;20030;-75
2023/12/04 02:23:08;;;;;;;24.17;9.95;;;;;;;;;;4982970;28;20038;-73
2023/12/04 02:25:34;;;;;;;18.75;9.27;;;;;;;;;;4972436;28;20047;-74
2023/12/04 02:28:04;;;;;;;18.85;8.75;;;;;;;;;;4984760;28;20038;-75
2023/12/04 02:30:30;;;;;;;23.67;9.52;;;;;;;;;;4988685;28;20030;-74
2023/12/04 02:32:58;;;;;;;22.17;10.02;;;;;;;;;;4967210;28;20493;-74
2023/12/04 02:35:28;;;;;;;25.55;10.40;;;;;;;;;;4996363;28;20042;-75
2023/12/04 02:37:54;;;;;;;22.42;9.18;;;;;;;;;;4983947;28;20042;-73
2023/12/04 02:40:20;;;;;;;24.08;9.73;;;;;;;;;;5000372;28;20166;-74
2023/12/04 02:42:45;;;;;;;24.02;10.52;;;;;;;;;;4999259;28;20034;-75
2023/12/04 02:45:10;;;;;;;48.47;16.42;;;;;;;;;;4984237;28;20670;-72
2023/12/04 02:47:36;;;;;;;45.72;15.15;;;;;;;;;;4993575;28;20045;-74
2023/12/04 02:50:01;;;;;;;33.33;12.45;;;;;;;;;;4977444;28;20046;-75
2023/12/04 02:52:27;;;;;;;37.20;13.55;;;;;;;;;;4971489;28;20052;-74
2023/12/04 02:54:52;;;;;;;26.05;10.07;;;;;;;;;;4977513;28;20103;-75
2023/12/04 02:57:18;;;;;;;30.17;11.20;;;;;;;;;;4997509;28;20413;-74
2023/12/04 02:59:43;;;;;;;59.92;19.63;;;;;;;;;;4988759;28;20124;-75
2023/12/04 03:02:08;;;;;;;26.83;11.48;;;;;;;;;;4996053;28;20045;-73
2023/12/04 03:04:34;;;;;;;24.85;9.63;;;;;;;;;;4995466;28;20610;-73
2023/12/04 03:07:00;;;;;;;25.70;11.10;;;;;;;;;;4987387;28;20037;-73
2023/12/04 03:09:25;;;;;;;25.70;10.23;;;;;;;;;;4998637;28;20099;-76
2023/12/04 03:11:51;;;;;;;27.85;11.73;;;;;;;;;;4992884;28;20038;-74
2023/12/04 03:14:16;;;;;;;24.92;11.02;;;;;;;;;;4991375;28;20500;-75
2023/12/04 03:16:42;;;;;;;25.20;10.45;;;;;;;;;;4978803;28;20057;-74
2023/12/04 03:19:07;;;;;;;21.95;9.90;;;;;;;;;;4976717;28;20781;-75
2023/12/04 03:21:32;;;;;;;24.50;10.13;;;;;;;;;;4971929;28;20391;-75
2023/12/04 03:23:58;;;;;;;24.15;10.63;;;;;;;;;;4973996;28;20054;-73
2023/12/04 03:26:23;;;;;;;26.20;10.98;;;;;;;;;;5003918;28;20060;-73
2023/12/04 03:28:48;;;;;;;24.38;9.85;;;;;;;;;;4983537;28;20040;-73
2023/12/04 03:31:14;;;;;;;20.70;9.85;;;;;;;;;;4995129;28;20049;-73
2023/12/04 03:33:39;;;;;;;22.63;9.55;;;;;;;;;;4999624;28;20400;-74
2023/12/04 03:36:05;;;;;;;23.27;9.40;;;;;;;;;;4982608;28;20056;-75
2023/12/04 03:38:30;;;;;;;23.33;10.00;;;;;;;;;;4997097;28;20489;-74
2023/12/04 03:40:56;;;;;;;20.85;9.52;;;;;;;;;;4990076;28;20037;-74
2023/12/04 03:43:21;;;;;;;28.27;10.73;;;;;;;;;;4967093;28;20468;-75
2023/12/04 03:45:46;;;;;;;28.73;10.77;;;;;;;;;;4992494;28;20038;-73
2023/12/04 03:48:12;;;;;;;27.98;10.70;;;;;;;;;;4980387;28;20489;-74
2023/12/04 03:50:37;;;;;;;26.02;10.25;;;;;;;;;;4996323;28;20085;-76
2023/12/04 03:53:03;;;;;;;28.00;10.48;;;;;;;;;;4991280;28;20038;-74
2023/12/04 03:55:28;;;;;;;22.75;10.13;;;;;;;;;;4998508;28;20053;-72
2023/12/04 03:57:54;;;;;;;34.10;14.07;;;;;;;;;;4996632;28;20097;-73
2023/12/04 04:00:20;;;;;;;25.33;10.75;;;;;;;;;;4992852;28;20042;-74
2023/12/04 04:02:45;;;;;;;24.42;10.45;;;;;;;;;;4991408;28;20049;-72
2023/12/04 04:05:11;;;;;;;24.83;11.23;;;;;;;;;;4994547;28;20915;-72
2023/12/04 04:07:36;;;;;;;25.42;10.10;;;;;;;;;;5007182;28;20570;-74
2023/12/04 04:10:04;;;;;;;27.38;11.68;;;;;;;;;;4994733;28;20041;-72
2023/12/04 04:12:29;;;;;;;26.10;9.88;;;;;;;;;;4969904;28;20037;-74
2023/12/04 04:14:55;;;;;;;21.48;9.43;;;;;;;;;;4978182;28;20042;-73
2023/12/04 04:17:20;;;;;;;29.17;12.20;;;;;;;;;;4978649;28;20050;-72
2023/12/04 04:19:45;;;;;;;23.85;10.25;;;;;;;;;;4981522;28;20537;-74
2023/12/04 04:22:11;;;;;;;21.30;9.32;;;;;;;;;;4994356;28;20141;-73
2023/12/04 04:24:36;;;;;;;23.02;10.13;;;;;;;;;;5004287;28;20507;-74
2023/12/04 04:27:02;;;;;;;24.50;10.68;;;;;;;;;;4980204;28;20046;-74
2023/12/04 04:29:27;;;;;;;30.17;10.25;;;;;;;;;;4994309;28;20037;-73
2023/12/04 04:31:53;;;;;;;28.17;11.13;;;;;;;;;;4985430;28;20059;-74
2023/12/04 04:34:20;;;;;;;29.75;10.73;;;;;;;;;;4986528;28;20029;-72
2023/12/04 04:36:45;;;;;;;27.52;11.13;;;;;;;;;;4994916;28;20041;-73
2023/12/04 04:39:12;;;;;;;26.35;11.15;;;;;;;;;;4975187;28;20046;-75
2023/12/04 04:41:37;;;;;;;23.83;10.93;;;;;;;;;;4973773;28;20042;-74
2023/12/04 04:44:03;;;;;;;21.00;10.25;;;;;;;;;;4976780;28;20046;-75
2023/12/04 04:46:28;;;;;;;20.80;9.15;;;;;;;;;;4979884;28;20033;-74
2023/12/04 04:48:54;;;;;;;23.05;10.30;;;;;;;;;;5003745;28;20096;-76
2023/12/04 04:51:19;;;;;;;24.35;9.63;;;;;;;;;;4997685;28;20572;-75
2023/12/04 04:53:44;;;;;;;22.17;8.75;;;;;;;;;;4986522;28;20564;-73
2023/12/04 04:56:10;;;;;;;23.27;8.70;;;;;;;;;;4981309;28;20042;-74
2023/12/04 04:58:36;;;;;;;22.77;9.80;;;;;;;;;;4995750;28;20033;-74
2023/12/04 05:01:01;;;;;;;18.33;7.53;;;;;;;;;;4986432;28;20108;-74
2023/12/04 05:03:26;;;;;;;22.33;9.05;;;;;;;;;;4992475;28;20048;-75
2023/12/04 05:05:52;;;;;;;19.85;8.73;;;;;;;;;;4996674;28;20141;-74
2023/12/04 05:08:17;;;;;;;23.55;10.20;;;;;;;;;;4989117;28;20041;-73
2023/12/04 05:10:43;;;;;;;17.92;8.77;;;;;;;;;;4984957;28;20559;-74
2023/12/04 05:13:08;;;;;;;20.50;8.90;;;;;;;;;;4981280;28;20030;-73
2023/12/04 05:15:34;;;;;;;23.48;9.68;;;;;;;;;;4976814;28;20038;-72
2023/12/04 05:17:59;;;;;;;17.35;8.02;;;;;;;;;;4997536;28;20034;-74
2023/12/04 05:20:24;;;;;;;20.70;9.00;;;;;;;;;;4993519;28;20061;-71
2023/12/04 05:22:50;;;;;;;21.40;9.05;;;;;;;;;;4989122;28;20451;-74
2023/12/04 05:25:15;;;;;;;20.60;8.82;;;;;;;;;;5000071;28;20116;-74
2023/12/04 05:27:41;;;;;;;23.08;9.98;;;;;;;;;;4994487;28;20120;-73
2023/12/04 05:30:06;;;;;;;25.60;10.43;;;;;;;;;;4973309;28;20046;-74
2023/12/04 05:32:32;;;;;;;29.80;10.55;;;;;;;;;;4999808;28;20399;-75
2023/12/04 05:34:57;;;;;;;22.25;10.60;;;;;;;;;;4985305;28;20093;-73
2023/12/04 05:37:22;;;;;;;23.17;10.15;;;;;;;;;;4985942;28;20053;-75
2023/12/04 05:39:48;;;;;;;25.58;10.75;;;;;;;;;;4977482;28;20740;-73
2023/12/04 05:42:16;;;;;;;28.13;12.48;;;;;;;;;;4994009;28;20034;-75
2023/12/04 05:44:41;;;;;;;23.83;9.48;;;;;;;;;;4988784;28;20038;-75
2023/12/04 05:47:08;;;;;;;27.90;10.68;;;;;;;;;;4991951;28;20041;-74
2023/12/04 05:49:34;;;;;;;22.73;10.05;;;;;;;;;;4989229;28;20046;-74
2023/12/04 05:51:59;;;;;;;26.38;10.38;;;;;;;;;;4986375;28;20112;-75
2023/12/04 05:54:25;;;;;;;23.25;10.48;;;;;;;;;;4997492;28;20056;-75
2023/12/04 05:56:50;;;;;;;25.65;10.35;;;;;;;;;;4986576;28;20038;-76
2023/12/04 05:59:16;;;;;;;23.02;10.32;;;;;;;;;;4984683;28;20045;-74
2023/12/04 06:01:41;;;;;;;25.48;10.43;;;;;;;;;;4989214;28;20053;-74
2023/12/04 06:04:06;;;;;;;25.98;9.60;;;;;;;;;;4991331;28;20049;-75
2023/12/04 06:06:32;;;;;;;28.50;10.45;;;;;;;;;;4985132;28;20197;-74
2023/12/04 06:08:57;;;;;;;24.13;10.00;;;;;;;;;;4995446;28;20069;-75
2023/12/04 06:11:22;;;;;;;26.60;9.88;;;;;;;;;;4990182;28;20474;-74
2023/12/04 06:13:48;;;;;;;21.10;8.80;;;;;;;;;;4994122;28;20056;-75
2023/12/04 06:16:13;;;;;;;22.63;9.80;;;;;;;;;;4990483;28;20065;-77
2023/12/04 06:18:39;;;;;;;24.08;11.38;;;;;;;;;;4990321;28;20149;-76
2023/12/04 06:21:04;;;;;;;27.75;10.75;;;;;;;;;;4975799;28;20042;-76
2023/12/04 06:23:30;;;;;;;23.05;9.90;;;;;;;;;;4996290;28;20045;-75
2023/12/04 06:25:56;;;;;;;20.25;9.52;;;;;;;;;;4988471;28;20109;-75
2023/12/04 06:28:21;;;;;;;26.20;10.10;;;;;;;;;;5004219;28;20049;-74
2023/12/04 06:30:47;;;;;;;20.52;9.10;;;;;;;;;;4999588;28;20088;-74
2023/12/04 06:33:14;;;;;;;21.45;9.57;;;;;;;;;;4980078;28;20038;-74
2023/12/04 06:35:40;;;;;;;24.63;10.18;;;;;;;;;;4966945;28;20055;-74
2023/12/04 06:38:07;;;;;;;19.55;9.23;;;;;;;;;;5005675;28;20116;-74
2023/12/04 06:40:33;;;;;;;23.42;10.27;;;;;;;;;;4991024;28;20037;-75
2023/12/04 06:42:59;;;;;;;23.45;10.93;;;;;;;;;;4987474;28;20041;-75
2023/12/04 06:45:25;;;;;;;27.55;11.52;;;;;;;;;;4991889;28;20049;-75
2023/12/04 06:47:50;;;;;;;31.95;12.48;;;;;;;;;;4991643;28;20736;-75
2023/12/04 06:50:16;;;;;;;28.42;10.65;;;;;;;;;;4993892;28;20504;-74
2023/12/04 06:52:42;;;;;;;25.90;10.77;;;;;;;;;;5000605;28;20040;-74
2023/12/04 06:55:08;;;;;;;26.00;10.32;;;;;;;;;;4973399;28;20129;-75
2023/12/04 06:57:33;;;;;;;25.20;10.75;;;;;;;;;;4991059;28;20060;-75
2023/12/04 06:59:59;;;;;;;27.45;11.05;;;;;;;;;;4996154;28;20038;-75
2023/12/04 07:02:24;;;;;;;22.58;9.90;;;;;;;;;;4978028;28;20116;-76
2023/12/04 07:04:49;;;;;;;21.17;9.85;;;;;;;;;;4982411;28;20124;-74
2023/12/04 07:07:15;;;;;;;30.58;10.88;;;;;;;;;;4988272;28;20036;-75
2023/12/04 07:09:41;;;;;;;27.05;10.80;;;;;;;;;;4984201;28;20388;-74
2023/12/04 07:12:06;;;;;;;30.50;11.02;;;;;;;;;;4993708;28;20033;-74
2023/12/04 07:14:32;;;;;;;26.77;10.32;;;;;;;;;;4994694;28;20040;-74
2023/12/04 07:16:57;;;;;;;24.95;11.68;;;;;;;;;;4993539;28;20034;-75
2023/12/04 07:19:23;;;;;;;28.58;12.35;;;;;;;;;;4986687;28;20042;-75
2023/12/04 07:21:49;;;;;;;20.75;10.90;;;;;;;;;;4990081;28;20072;-74
2023/12/04 07:24:16;;;;;;;28.33;11.45;;;;;;;;;;4984855;28;20125;-75
2023/12/04 07:26:41;;;;;;;17.85;8.55;;;;;;;;;;4979174;28;20096;-74
2023/12/04 07:29:07;;;;;;;23.30;10.25;;;;;;;;;;4997900;28;20480;-74
2023/12/04 07:31:32;;;;;;;23.73;9.90;;;;;;;;;;4982228;28;20092;-76
2023/12/04 07:34:00;;;;;;;20.88;9.50;;;;;;;;;;4973422;28;20034;-75
2023/12/04 07:36:25;;;;;;;21.08;9.52;;;;;;;;;;4972087;28;20089;-75
2023/12/04 07:38:53;;;;;;;24.77;11.30;;;;;;;;;;4998482;28;20042;-74
2023/12/04 07:41:19;;;;;;;23.48;9.55;;;;;;;;;;4993846;28;20045;-74
2023/12/04 07:43:44;;;;;;;23.55;10.40;;;;;;;;;;4983487;28;20053;-74
2023/12/04 07:46:11;;;;;;;25.00;9.98;;;;;;;;;;4958104;28;20034;-75
2023/12/04 07:48:36;;;;;;;22.70;9.70;;;;;;;;;;4977848;28;20045;-74
2023/12/04 07:51:02;;;;;;;21.17;10.30;;;;;;;;;;4978908;28;20045;-75
2023/12/04 07:53:27;;;;;;;25.45;10.65;;;;;;;;;;4995394;28;20037;-74
2023/12/04 07:55:53;;;;;;;22.48;9.20;;;;;;;;;;4993138;28;20560;-74
2023/12/04 07:58:18;;;;;;;19.13;8.68;;;;;;;;;;4975763;28;20046;-75
2023/12/04 08:00:44;;;;;;;14.45;6.72;;;;;;;;;;4992047;28;20115;-74
2023/12/04 08:03:10;;;;;;;26.77;10.05;;;;;;;;;;4996014;28;20124;-74
2023/12/04 08:05:35;;;;;;;33.47;14.63;;;;;;;;;;4980393;28;20373;-74
2023/12/04 08:08:01;;;;;;;31.77;14.02;;;;;;;;;;4997755;28;20531;-74
2023/12/04 08:10:26;;;;;;;29.38;13.57;;;;;;;;;;4998850;28;20041;-74
2023/12/04 08:12:52;;;;;;;35.25;12.90;;;;;;;;;;4986988;28;20096;-74
2023/12/04 08:15:17;;;;;;;26.98;12.05;;;;;;;;;;4996257;28;20037;-76
2023/12/04 08:17:42;;;;;;;22.73;10.68;;;;;;;;;;4987893;28;20041;-74
2023/12/04 08:20:13;;;;;;;27.48;11.70;;;;;;;;;;4976519;28;20049;-74
2023/12/04 08:22:41;;;;;;;22.95;10.85;;;;;;;;;;4990443;28;20076;-75
2023/12/04 08:25:07;;;;;;;23.95;10.13;;;;;;;;;;4977107;28;20042;-74
2023/12/04 08:27:32;;;;;;;25.33;10.23;;;;;;;;;;4986920;28;20061;-74
2023/12/04 08:29:58;;;;;;;23.58;10.20;;;;;;;;;;4976734;28;20507;-73
2023/12/04 08:32:26;;;;;;;23.35;10.05;;;;;;;;;;4997676;28;20114;-75
2023/12/04 08:34:51;;;;;;;21.45;9.40;;;;;;;;;;4968142;28;20058;-75
2023/12/04 08:37:18;;;;;;;23.33;9.70;;;;;;;;;;4996256;28;20037;-75
2023/12/04 08:39:43;;;;;;;23.77;10.25;;;;;;;;;;4992225;28;20038;-74
2023/12/04 08:42:08;;;;;;;22.48;9.93;;;;;;;;;;4991570;28;20037;-74
2023/12/04 08:44:34;;;;;;;22.80;9.50;;;;;;;;;;4992977;28;20037;-74
2023/12/04 08:46:59;;;;;;;23.05;10.95;;;;;;;;;;4982044;28;20044;-74
2023/12/04 08:49:25;;;;;;;24.67;10.40;;;;;;;;;;4983377;28;20097;-74
2023/12/04 08:51:52;;;;;;;27.48;11.60;;;;;;;;;;4987039;28;20049;-74
2023/12/04 08:54:18;;;;;;;23.38;10.05;;;;;;;;;;4976173;28;20051;-73
2023/12/04 08:56:44;;;;;;;25.63;11.40;;;;;;;;;;4965305;28;20047;-74
2023/12/04 08:59:10;;;;;;;22.02;9.25;;;;;;;;;;4987525;28;20093;-74
2023/12/04 09:01:36;;;;;;;21.80;8.98;;;;;;;;;;4974537;28;20069;-74
2023/12/04 09:04:01;;;;;;;22.45;8.48;;;;;;;;;;4989468;28;20163;-74
2023/12/04 09:06:27;;;;;;;19.10;8.88;;;;;;;;;;4985868;28;20743;-74
2023/12/04 09:08:52;;;;;;;23.00;9.25;;;;;;;;;;4975475;28;20041;-74
2023/12/04 09:11:17;;;;;;;22.58;8.82;;;;;;;;;;4985588;28;20054;-74
2023/12/04 09:13:43;;;;;;;19.60;8.65;;;;;;;;;;4991024;28;20113;-75
2023/12/04 09:16:08;;;;;;;20.15;9.45;;;;;;;;;;4973599;28;20513;-74
2023/12/04 09:18:34;;;;;;;21.27;8.65;;;;;;;;;;4985694;28;20038;-74
2023/12/04 09:20:59;;;;;;;22.45;10.40;;;;;;;;;;5002845;28;20424;-74
2023/12/04 09:23:25;;;;;;;23.50;9.57;;;;;;;;;;4983798;28;20454;-74
2023/12/04 09:25:50;;;;;;;18.52;8.95;;;;;;;;;;4994869;28;20045;-74
2023/12/04 09:28:16;;;;;;;21.77;8.43;;;;;;;;;;4993465;28;20513;-74
2023/12/04 09:30:42;;;;;;;21.30;9.65;;;;;;;;;;4980212;28;20120;-75
2023/12/04 09:33:07;;;;;;;20.85;9.63;;;;;;;;;;4991758;28;20040;-75
2023/12/04 09:35:32;;;;;;;21.02;8.98;;;;;;;;;;4994393;28;20033;-74
2023/12/04 09:37:58;;;;;;;18.80;9.32;;;;;;;;;;4989382;28;20049;-74
2023/12/04 09:40:24;;;;;;;20.33;8.00;;;;;;;;;;4978928;28;20435;-74
2023/12/04 09:42:49;;;;;;;20.30;9.48;;;;;;;;;;4991796;28;20050;-75
2023/12/04 09:45:15;;;;;;;21.05;9.57;;;;;;;;;;4972722;28;20049;-75
2023/12/04 09:47:42;;;;;;;23.17;9.55;;;;;;;;;;4976234;28;20169;-75
2023/12/04 09:50:08;;;;;;;17.83;8.40;;;;;;;;;;4957350;28;20042;-74
2023/12/04 09:52:35;;;;;;;19.85;9.40;;;;;;;;;;4964126;28;20061;-74
2023/12/04 09:55:01;;;;;;;19.13;9.07;;;;;;;;;;4999214;28;20092;-74
2023/12/04 09:57:26;;;;;;;21.55;9.50;;;;;;;;;;4990151;28;20049;-74
2023/12/04 09:59:52;;;;;;;20.88;9.43;;;;;;;;;;4984424;28;20049;-74
2023/12/04 10:02:19;;;;;;;20.63;8.48;;;;;;;;;;4984964;28;20052;-74
2023/12/04 10:04:45;;;;;;;22.25;9.88;;;;;;;;;;4984331;28;20416;-74
2023/12/04 10:07:10;;;;;;;20.75;9.05;;;;;;;;;;4975857;28;20105;-74
2023/12/04 10:09:36;;;;;;;22.00;9.60;;;;;;;;;;4982907;28;20101;-74
2023/12/04 10:12:02;;;;;;;19.98;8.73;;;;;;;;;;4961148;28;20125;-74
2023/12/04 10:14:27;;;;;;;22.80;8.43;;;;;;;;;;4968346;28;20046;-74
2023/12/04 10:16:53;;;;;;;20.27;9.10;;;;;;;;;;4978602;28;20038;-72
2023/12/04 10:19:23;;;;;;;19.55;7.78;;;;;;;;;;4985519;28;20038;-74
2023/12/04 10:21:49;;;;;;;20.15;8.32;;;;;;;;;;4965745;28;20055;-74
2023/12/04 10:24:37;;;;;;;17.65;8.70;;;;;;;;;;4994055;28;20046;-74
2023/12/04 10:27:09;;;;;;;19.02;8.38;;;;;;;;;;4962210;28;20047;-74
2023/12/04 10:29:49;;;;;;;16.35;7.30;;;;;;;;;;4995441;28;20038;-74
2023/12/04 10:32:23;;;;;;;14.52;6.68;;;;;;;;;;4978145;28;20429;-74
2023/12/04 10:34:49;;;;;;;15.65;7.60;;;;;;;;;;4994112;28;20037;-74
2023/12/04 10:37:15;;;;;;;16.48;7.90;;;;;;;;;;4972637;28;20656;-74
2023/12/04 10:39:48;;;;;;;17.52;8.02;;;;;;;;;;4978611;28;20116;-74
2023/12/04 10:42:27;;;;;;;18.63;8.15;;;;;;;;;;4997755;28;20045;-74
2023/12/04 10:44:55;;;;;;;15.18;6.75;;;;;;;;;;4975060;28;20560;-74
2023/12/04 10:47:22;;;;;;;13.20;6.28;;;;;;;;;;4979563;28;20100;-74
2023/12/04 10:49:51;;;;;;;14.50;6.95;;;;;;;;;;4985456;28;20049;-74
2023/12/04 10:52:19;;;;;;;15.13;7.55;;;;;;;;;;4992558;28;20121;-74
2023/12/04 10:54:47;;;;;;;16.58;7.47;;;;;;;;;;4980063;28;20042;-74
2023/12/04 10:57:20;;;;;;;24.98;9.38;;;;;;;;;;4975862;28;20042;-74
2023/12/04 10:59:46;;;;;;;20.60;9.32;;;;;;;;;;4997112;28;20073;-74
2023/12/04 11:02:21;;;;;;;18.73;8.65;;;;;;;;;;4986506;28;20044;-74
2023/12/04 11:04:50;;;;;;;20.73;8.85;;;;;;;;;;4975347;28;20096;-74
2023/12/04 11:07:18;;;;;;;19.58;9.90;;;;;;;;;;5002452;28;20033;-73
2023/12/04 11:09:45;;;;;;;21.80;9.65;;;;;;;;;;4980259;28;20040;-74
2023/12/04 11:12:18;;;;;;;21.17;9.75;;;;;;;;;;4986584;28;20042;-74
2023/12/04 11:14:49;;;;;;;20.90;9.13;;;;;;;;;;4972072;28;20064;-74
2023/12/04 11:17:16;;;;;;;24.77;10.65;;;;;;;;;;4987576;28;20046;-74
2023/12/04 11:19:55;;;;;;;21.35;9.15;;;;;;;;;;4974649;28;20037;-74
2023/12/04 11:22:21;;;;;;;16.75;7.88;;;;;;;;;;4982375;28;20201;-74
2023/12/04 11:24:48;;;;;;;16.92;7.30;;;;;;;;;;4985832;28;20041;-74
2023/12/04 11:27:16;;;;;;;18.38;8.32;;;;;;;;;;4985024;28;20037;-74
2023/12/04 11:29:43;;;;;;;16.08;7.80;;;;;;;;;;4992538;28;20551;-74
2023/12/04 11:32:15;;;;;;;13.70;7.57;;;;;;;;;;4986420;28;20129;-74
2023/12/04 11:35:12;;;;;;;18.33;8.40;;;;;;;;;;4948497;28;20034;-74
2023/12/04 11:37:37;;;;;;;14.73;7.05;;;;;;;;;;4971054;28;20746;-74
2023/12/04 11:40:04;;;;;;;20.10;8.68;;;;;;;;;;4995421;28;20056;-74
2023/12/04 11:42:30;;;;;;;17.35;7.75;;;;;;;;;;4983356;28;20077;-74
2023/12/04 11:44:57;;;;;;;16.70;7.22;;;;;;;;;;4964564;28;20594;-74
2023/12/04 11:47:23;;;;;;;20.75;8.50;;;;;;;;;;4990578;28;20532;-73
2023/12/04 11:49:48;;;;;;;19.08;8.35;;;;;;;;;;4994148;28;20069;-74
2023/12/04 11:52:14;;;;;;;16.25;7.88;;;;;;;;;;4977151;28;20043;-73
2023/12/04 11:55:03;;;;;;;15.57;7.57;;;;;;;;;;4990855;28;20038;-73
2023/12/04 11:57:34;;;;;;;19.50;7.50;;;;;;;;;;4974242;28;20505;-75
2023/12/04 12:00:23;;;;;;;19.90;8.50;;;;;;;;;;4974605;28;20096;-74
2023/12/04 12:02:53;;;;;;;18.70;8.27;;;;;;;;;;4961747;28;20055;-74
2023/12/04 12:05:20;;;;;;;15.75;7.32;;;;;;;;;;4988478;28;20738;-74
2023/12/04 12:07:45;;;;;;;11.25;6.07;;;;;;;;;;4986438;28;20504;-74
2023/12/04 12:10:13;;;;;;;16.15;8.00;;;;;;;;;;4992934;28;20036;-75
2023/12/04 12:12:40;;;;;;;20.52;9.93;;;;;;;;;;4988136;28;20057;-74
2023/12/04 12:15:09;;;;;;;13.13;7.40;;;;;;;;;;4977052;28;20050;-74
2023/12/04 12:17:34;;;;;;;23.58;10.27;;;;;;;;;;4960115;28;20049;-74
2023/12/04 12:20:00;;;;;;;17.88;7.70;;;;;;;;;;4978771;28;20030;-73
2023/12/04 12:22:25;;;;;;;19.52;7.43;;;;;;;;;;4976724;28;20072;-74
2023/12/04 12:24:51;;;;;;;15.52;7.47;;;;;;;;;;4983857;28;20052;-74
2023/12/04 12:27:17;;;;;;;17.25;7.05;;;;;;;;;;4998287;28;20094;-74
2023/12/04 12:29:42;;;;;;;16.58;7.90;;;;;;;;;;4969333;28;20045;-74
2023/12/04 12:32:08;;;;;;;16.63;8.18;;;;;;;;;;4990892;28;20576;-74
2023/12/04 12:34:35;;;;;;;24.50;10.63;;;;;;;;;;4993940;28;20038;-73
2023/12/04 12:37:03;;;;;;;16.35;7.90;;;;;;;;;;4981224;28;20045;-74
2023/12/04 12:39:29;;;;;;;14.70;7.03;;;;;;;;;;4990955;28;20125;-74
2023/12/04 12:41:55;;;;;;;15.70;7.20;;;;;;;;;;4994274;28;20071;-74
2023/12/04 12:44:20;;;;;;;40.47;15.88;;;;;;;;;;4996631;28;20033;-74
2023/12/04 12:46:50;;;;;;;37.45;14.48;;;;;;;;;;4982623;28;20070;-74
2023/12/04 12:49:22;;;;;;;14.55;7.38;;;;;;;;;;4972682;28;20524;-74
2023/12/04 12:51:48;;;;;;;17.08;7.97;;;;;;;;;;4990003;28;20064;-74
2023/12/04 12:54:13;;;;;;;14.00;6.85;;;;;;;;;;4994324;28;20544;-74
2023/12/04 12:56:39;;;;;;;11.57;5.65;;;;;;;;;;4987019;28;20041;-74
2023/12/04 12:59:06;;;;;;;14.70;6.88;;;;;;;;;;4991884;28;20322;-74
2023/12/04 13:01:32;;;;;;;14.80;6.22;;;;;;;;;;4989796;28;20121;-74
2023/12/04 13:03:58;;;;;;;14.27;6.50;;;;;;;;;;4979814;28;20438;-74
2023/12/04 13:06:23;;;;;;;16.23;7.38;;;;;;;;;;4988261;28;20100;-74
2023/12/04 13:08:49;;;;;;;16.90;8.13;;;;;;;;;;4988377;28;20053;-74
2023/12/04 13:11:14;;;;;;;16.45;6.97;;;;;;;;;;4973472;28;20045;-74
2023/12/04 13:13:40;;;;;;;16.77;6.80;;;;;;;;;;4968133;28;20066;-75
2023/12/04 13:16:06;;;;;;;12.25;5.85;;;;;;;;;;4976095;28;20073;-74
2023/12/04 13:18:34;;;;;;;13.88;6.22;;;;;;;;;;4983542;28;20037;-74
2023/12/04 13:21:00;;;;;;;14.85;6.47;;;;;;;;;;4986249;28;20150;-74
2023/12/04 13:23:25;;;;;;;11.50;6.15;;;;;;;;;;4979999;28;20109;-75
2023/12/04 13:25:51;;;;;;;12.57;6.65;;;;;;;;;;4997926;28;20064;-75
2023/12/04 13:28:16;;;;;;;10.93;5.65;;;;;;;;;;4993233;28;20116;-74
2023/12/04 13:30:42;;;;;;;10.48;5.30;;;;;;;;;;4992932;28;20091;-74
2023/12/04 13:33:08;;;;;;;13.82;6.60;;;;;;;;;;4966095;28;20065;-75
2023/12/04 13:35:33;;;;;;;13.88;6.72;;;;;;;;;;5003594;28;20076;-74
2023/12/04 13:37:59;;;;;;;14.38;6.75;;;;;;;;;;4965798;28;20042;-74
2023/12/04 13:40:28;;;;;;;12.77;6.78;;;;;;;;;;4992251;28;20805;-75
2023/12/04 13:45:37;;;;;;;16.45;7.38;;;;;;;;;;4972818;28;20092;-74
2023/12/04 13:48:03;;;;;;;12.70;6.78;;;;;;;;;;4974599;28;20321;-73
2023/12/04 13:50:28;;;;;;;13.07;7.18;;;;;;;;;;4990956;28;20141;-73
2023/12/04 13:52:57;;;;;;;14.32;7.07;;;;;;;;;;5001332;28;20120;-72
2023/12/04 13:55:46;;;;;;;17.05;8.30;;;;;;;;;;4997368;28;20575;-75
2023/12/04 13:58:37;;;;;;;16.58;7.03;;;;;;;;;;4987799;28;20042;-75
2023/12/04 14:00:58;;;;;;;14.35;7.28;;;;;;;;;;4994589;28;20025;-75
2023/12/04 14:03:23;;;;;;;15.02;7.22;;;;;;;;;;5002302;28;20268;-73
2023/12/04 14:05:48;;;;;;;15.93;7.75;;;;;;;;;;4987924;28;20547;-74
2023/12/04 14:08:14;;;;;;;15.38;7.75;;;;;;;;;;4994872;28;20033;-74
2023/12/04 14:10:39;;;;;;;13.30;6.70;;;;;;;;;;4967743;28;20516;-74
2023/12/04 14:13:05;;;;;;;10.90;6.30;;;;;;;;;;4989345;28;20064;-74
2023/12/04 14:15:30;;;;;;;13.80;6.93;;;;;;;;;;4980263;28;20051;-74
2023/12/04 14:17:55;;;;;;;15.93;7.38;;;;;;;;;;4967048;28;20440;-75
2023/12/04 14:20:22;;;;;;;12.35;6.55;;;;;;;;;;5003691;28;20037;-74
2023/12/04 14:22:47;;;;;;;13.32;6.10;;;;;;;;;;4993012;28;20068;-74